Time;durP1;ratioP1;P1;durP2;ratioP2;P2;SDS_P1;SDS_P2;PMS_P1;PMS_P2;Temp;Humidity;BMP_temperature;BMP_pressure;BME280_temperature;BME280_humidity;BME280_pressure;Samples;Min_cycle;Max_cycle;Signal;HPM_P1;HPM_P2
2024/02/22 00:01:28;;;;;;;1.98;0.70;;;;;;;-141.50;100.00;63355.56;5004325;28;20298;-79
2024/02/22 00:03:55;;;;;;;1.95;0.60;;;;;;;-141.50;100.00;63355.56;5009956;28;20507;-79
2024/02/22 00:06:22;;;;;;;1.90;0.60;;;;;;;-141.50;100.00;63355.56;4991945;28;20304;-78
2024/02/22 00:08:48;;;;;;;1.02;0.50;;;;;;;-141.50;100.00;63355.56;5009054;28;20058;-79
2024/02/22 00:11:15;;;;;;;4.18;0.80;;;;;;;-141.50;100.00;63355.56;5007849;28;20053;-79
2024/02/22 00:13:42;;;;;;;3.65;0.77;;;;;;;-141.50;100.00;63355.56;5009276;28;20583;-79
2024/02/22 00:16:09;;;;;;;1.35;0.52;;;;;;;-141.50;100.00;63355.56;5009244;28;20046;-77
2024/02/22 00:18:35;;;;;;;2.65;0.73;;;;;;;-141.50;100.00;63355.56;4991836;28;20133;-78
2024/02/22 00:21:03;;;;;;;1.85;0.57;;;;;;;-141.50;100.00;63355.56;5010518;28;20136;-78
2024/02/22 00:23:30;;;;;;;1.50;0.52;;;;;;;-141.50;100.00;63355.56;5007888;28;20118;-78
2024/02/22 00:25:57;;;;;;;1.98;0.57;;;;;;;-141.50;100.00;63355.56;4993200;28;20054;-76
2024/02/22 00:28:23;;;;;;;1.65;0.60;;;;;;;-141.50;100.00;63355.56;5008032;28;20415;-77
2024/02/22 00:30:50;;;;;;;1.85;0.50;;;;;;;-141.50;100.00;63355.56;5008292;28;20065;-78
2024/02/22 00:33:17;;;;;;;1.38;0.40;;;;;;;-141.50;100.00;63355.56;5008697;28;20088;-79
2024/02/22 00:35:43;;;;;;;1.58;0.60;;;;;;;-141.50;100.00;63355.56;5008666;28;20042;-77
2024/02/22 00:38:10;;;;;;;1.42;0.60;;;;;;;-141.50;100.00;63355.56;4989606;28;20053;-79
2024/02/22 00:40:37;;;;;;;0.70;0.50;;;;;;;-141.50;100.00;63355.56;5008876;28;20052;-79
2024/02/22 00:43:04;;;;;;;2.60;0.60;;;;;;;-141.50;100.00;63355.56;4996486;28;20089;-79
2024/02/22 00:45:34;;;;;;;2.17;0.60;;;;;;;-141.50;100.00;63355.56;5012768;28;20108;-79
2024/02/22 00:48:01;;;;;;;1.58;0.65;;;;;;;-141.50;100.00;63355.56;5009209;28;20627;-79
2024/02/22 00:50:28;;;;;;;0.82;0.40;;;;;;;-141.50;100.00;63355.56;4986877;28;20531;-78
2024/02/22 00:52:58;;;;;;;1.02;0.50;;;;;;;-141.50;100.00;63355.56;4992832;28;20575;-79
2024/02/22 00:55:24;;;;;;;1.40;0.60;;;;;;;-141.50;100.00;63355.56;5011326;28;20068;-77
2024/02/22 00:57:53;;;;;;;1.15;0.60;;;;;;;-141.50;100.00;63355.56;5012662;28;20057;-79
2024/02/22 01:00:19;;;;;;;1.80;0.70;;;;;;;-141.50;100.00;63355.56;5011647;28;20073;-80
2024/02/22 01:02:46;;;;;;;1.00;0.47;;;;;;;-141.50;100.00;63355.56;4993566;28;20050;-79
2024/02/22 01:05:13;;;;;;;2.35;0.60;;;;;;;-141.50;100.00;63355.56;4995542;28;20108;-78
2024/02/22 01:07:40;;;;;;;1.83;0.52;;;;;;;-141.50;100.00;63355.56;4995741;28;20050;-77
2024/02/22 01:10:08;;;;;;;1.70;0.70;;;;;;;-141.50;100.00;63355.56;5019409;28;20077;-77
2024/02/22 01:12:35;;;;;;;1.33;0.60;;;;;;;-141.50;100.00;63355.56;4996290;28;20053;-77
2024/02/22 01:15:02;;;;;;;2.45;0.70;;;;;;;-141.50;100.00;63355.56;4992344;28;20061;-79
2024/02/22 01:17:29;;;;;;;0.68;0.30;;;;;;;-141.50;100.00;63355.56;5013024;28;20500;-77
2024/02/22 01:19:56;;;;;;;1.13;0.60;;;;;;;-141.50;100.00;63355.56;5013687;28;20062;-80
2024/02/22 01:22:23;;;;;;;1.67;0.73;;;;;;;-141.50;100.00;63355.56;5013092;28;20057;-79
2024/02/22 01:24:49;;;;;;;1.73;0.80;;;;;;;-141.50;100.00;63355.56;5022670;28;20066;-78
2024/02/22 01:27:16;;;;;;;2.65;0.70;;;;;;;-141.50;100.00;63355.56;4997487;28;20137;-77
2024/02/22 01:29:43;;;;;;;1.75;0.70;;;;;;;-141.50;100.00;63355.56;4995153;28;20245;-79
2024/02/22 01:32:09;;;;;;;2.65;0.57;;;;;;;-141.50;100.00;63355.56;4995710;28;20054;-76
2024/02/22 01:34:40;;;;;;;1.08;0.50;;;;;;;-141.50;100.00;63355.56;5003623;28;20060;-79
2024/02/22 01:37:07;;;;;;;1.77;0.80;;;;;;;-141.50;100.00;63355.56;5018928;28;20082;-80
2024/02/22 01:39:34;;;;;;;2.00;0.63;;;;;;;-141.50;100.00;63355.56;5011579;28;20053;-78
2024/02/22 01:42:01;;;;;;;2.03;0.70;;;;;;;-141.50;100.00;63355.56;5012699;28;20740;-77
2024/02/22 01:44:29;;;;;;;0.80;0.60;;;;;;;-141.50;100.00;63355.56;5012036;28;20053;-78
2024/02/22 01:46:56;;;;;;;1.85;0.63;;;;;;;-141.50;100.00;63355.56;5011190;28;20057;-77
2024/02/22 01:49:24;;;;;;;2.42;1.00;;;;;;;-141.50;100.00;63355.56;5016948;28;20064;-78
2024/02/22 01:51:55;;;;;;;1.83;0.73;;;;;;;-141.50;100.00;63355.56;5022947;28;20601;-77
2024/02/22 01:54:25;;;;;;;2.75;0.70;;;;;;;-141.50;100.00;63355.56;5015508;28;20058;-78
2024/02/22 01:56:52;;;;;;;4.38;0.70;;;;;;;-141.50;100.00;63355.56;5012317;28;20069;-78
2024/02/22 01:59:20;;;;;;;4.30;0.98;;;;;;;-141.50;100.00;63355.56;4993711;28;20575;-78
2024/02/22 02:01:50;;;;;;;2.58;0.70;;;;;;;-141.50;100.00;63355.56;4992056;28;20165;-77
2024/02/22 02:04:18;;;;;;;2.85;0.70;;;;;;;-141.50;100.00;63355.56;5010667;28;20054;-77
2024/02/22 02:06:45;;;;;;;2.10;0.60;;;;;;;-141.50;100.00;63355.56;4985057;28;20089;-78
2024/02/22 02:09:14;;;;;;;0.73;0.60;;;;;;;-141.50;100.00;63355.56;5009511;28;20080;-77
2024/02/22 02:11:41;;;;;;;1.27;0.70;;;;;;;-141.50;100.00;63355.56;5010104;28;20046;-78
2024/02/22 02:14:08;;;;;;;1.50;0.73;;;;;;;-141.50;100.00;63355.56;4995459;28;20054;-77
2024/02/22 02:16:35;;;;;;;2.55;0.70;;;;;;;-141.50;100.00;63355.56;5022861;28;20038;-77
2024/02/22 02:19:08;;;;;;;1.80;0.90;;;;;;;-141.50;100.00;63355.56;5007628;28;20062;-77
2024/02/22 02:21:50;;;;;;;2.13;0.88;;;;;;;-141.50;100.00;63355.56;5020621;28;20030;-76
2024/02/22 02:24:36;;;;;;;2.03;0.65;;;;;;;-141.50;100.00;63355.56;5000639;28;20497;-77
2024/02/22 02:27:05;;;;;;;1.45;0.70;;;;;;;-141.50;100.00;63355.56;4986650;28;20055;-78
2024/02/22 02:29:32;;;;;;;2.85;0.88;;;;;;;-141.50;100.00;63355.56;4991115;28;20065;-79
2024/02/22 02:31:59;;;;;;;1.23;0.63;;;;;;;-141.50;100.00;63355.56;4991029;28;20065;-78
2024/02/22 02:34:26;;;;;;;1.52;0.60;;;;;;;-141.50;100.00;63355.56;5008557;28;20351;-77
2024/02/22 02:36:53;;;;;;;1.83;0.77;;;;;;;-141.50;100.00;63355.56;5006824;28;20092;-77
2024/02/22 02:39:19;;;;;;;3.53;0.70;;;;;;;-141.50;100.00;63355.56;5002081;28;20062;-78
2024/02/22 02:41:46;;;;;;;2.70;0.70;;;;;;;-141.50;100.00;63355.56;5007011;28;20057;-76
2024/02/22 02:44:13;;;;;;;1.48;0.70;;;;;;;-141.50;100.00;63355.56;5006434;28;20054;-77
2024/02/22 02:46:40;;;;;;;0.88;0.60;;;;;;;-141.50;100.00;63355.56;4989786;28;20133;-77
2024/02/22 02:49:06;;;;;;;1.90;0.80;;;;;;;-141.50;100.00;63355.56;5007253;28;20084;-76
2024/02/22 02:51:33;;;;;;;2.28;0.98;;;;;;;-141.50;100.00;63355.56;5008348;28;20034;-77
2024/02/22 02:54:00;;;;;;;2.97;0.90;;;;;;;-141.50;100.00;63355.56;5006707;28;20046;-77
2024/02/22 02:56:27;;;;;;;1.05;0.63;;;;;;;-141.50;100.00;63355.56;4989664;28;20042;-77
2024/02/22 02:58:53;;;;;;;0.88;0.60;;;;;;;-141.50;100.00;63355.56;4995907;28;20045;-77
2024/02/22 03:01:20;;;;;;;4.72;0.90;;;;;;;-141.50;100.00;63355.56;5005412;28;20159;-77
2024/02/22 03:03:47;;;;;;;1.15;0.70;;;;;;;-141.50;100.00;63355.56;4988446;28;20080;-76
2024/02/22 03:06:14;;;;;;;1.50;0.70;;;;;;;-141.50;100.00;63355.56;5006667;28;20543;-77
2024/02/22 03:08:41;;;;;;;1.80;0.80;;;;;;;-141.50;100.00;63355.56;5006593;28;20045;-77
2024/02/22 03:11:08;;;;;;;2.00;0.85;;;;;;;-141.50;100.00;63355.56;5004102;28;20050;-77
2024/02/22 03:13:35;;;;;;;1.92;0.68;;;;;;;-141.50;100.00;63355.56;5002455;28;20050;-76
2024/02/22 03:16:04;;;;;;;2.85;0.93;;;;;;;-141.50;100.00;63355.56;4988308;28;20045;-77
2024/02/22 03:18:33;;;;;;;2.53;1.00;;;;;;;-141.50;100.00;63355.56;5005547;28;20038;-76
2024/02/22 03:21:03;;;;;;;3.97;0.95;;;;;;;-141.50;100.00;63355.56;4989415;28;20156;-77
2024/02/22 03:23:30;;;;;;;2.97;1.02;;;;;;;-141.50;100.00;63355.56;4991225;28;20044;-77
2024/02/22 03:25:57;;;;;;;1.02;0.77;;;;;;;-141.50;100.00;63355.56;5007693;28;20520;-77
2024/02/22 03:28:27;;;;;;;1.23;0.77;;;;;;;-141.50;100.00;63355.56;5006787;28;20117;-77
2024/02/22 03:30:54;;;;;;;1.60;0.82;;;;;;;-141.50;100.00;63355.56;4988299;28;20065;-77
2024/02/22 03:33:21;;;;;;;2.45;0.90;;;;;;;-141.50;100.00;63355.56;5005949;28;20366;-77
2024/02/22 03:35:49;;;;;;;1.92;0.80;;;;;;;-141.50;100.00;63355.56;4984288;28;20042;-75
2024/02/22 03:38:16;;;;;;;2.28;0.85;;;;;;;-141.50;100.00;63355.56;4989531;28;20053;-77
2024/02/22 03:40:43;;;;;;;1.75;0.82;;;;;;;-141.50;100.00;63355.56;5007186;28;20570;-78
2024/02/22 03:43:09;;;;;;;3.13;0.82;;;;;;;-141.50;100.00;63355.56;4971379;28;20080;-77
2024/02/22 03:45:36;;;;;;;2.58;0.80;;;;;;;-141.50;100.00;63355.56;5008820;28;20053;-78
2024/02/22 03:48:03;;;;;;;2.15;0.95;;;;;;;-141.50;100.00;63355.56;5007001;28;20045;-76
2024/02/22 03:50:30;;;;;;;2.75;1.00;;;;;;;-141.50;100.00;63355.56;4990163;28;20041;-77
2024/02/22 03:52:57;;;;;;;2.88;0.88;;;;;;;-141.50;100.00;63355.56;4988405;28;20042;-78
2024/02/22 03:55:24;;;;;;;2.58;1.00;;;;;;;-141.50;100.00;63355.56;4988980;28;20057;-77
2024/02/22 03:57:50;;;;;;;1.30;0.95;;;;;;;-141.50;100.00;63355.56;5006558;28;20415;-77
2024/02/22 04:00:17;;;;;;;3.65;1.10;;;;;;;-141.50;100.00;63355.56;5006177;28;20120;-77
2024/02/22 04:02:46;;;;;;;1.52;0.80;;;;;;;-141.50;100.00;63355.56;5006858;28;20364;-77
2024/02/22 04:05:15;;;;;;;4.32;0.98;;;;;;;-141.50;100.00;63355.56;4988494;28;21008;-77
2024/02/22 04:07:42;;;;;;;1.92;1.00;;;;;;;-141.50;100.00;63355.56;5006926;28;20049;-77
2024/02/22 04:10:09;;;;;;;2.70;1.15;;;;;;;-141.50;100.00;63355.56;4995035;28;21073;-77
2024/02/22 04:12:36;;;;;;;4.38;1.30;;;;;;;-141.50;100.00;63355.56;5005905;28;20080;-76
2024/02/22 04:15:04;;;;;;;2.53;1.05;;;;;;;-141.50;100.00;63355.56;4997479;28;20135;-78
2024/02/22 04:17:30;;;;;;;5.05;1.08;;;;;;;-141.50;100.00;63355.56;5005949;28;20073;-77
2024/02/22 04:19:58;;;;;;;3.35;1.00;;;;;;;-141.50;100.00;63355.56;4988805;28;20088;-77
2024/02/22 04:22:25;;;;;;;1.98;0.90;;;;;;;-141.50;100.00;63355.56;4987440;28;20053;-77
2024/02/22 04:24:52;;;;;;;2.30;1.00;;;;;;;-141.50;100.00;63355.56;5005801;28;20105;-78
2024/02/22 04:27:18;;;;;;;3.53;1.10;;;;;;;-141.50;100.00;63355.56;4986693;28;20057;-78
2024/02/22 04:29:45;;;;;;;3.97;0.95;;;;;;;-141.50;100.00;63355.56;5013537;28;20072;-78
2024/02/22 04:32:12;;;;;;;1.85;1.10;;;;;;;-141.50;100.00;63355.56;5011312;28;20058;-79
2024/02/22 04:34:38;;;;;;;2.85;1.00;;;;;;;-141.50;100.00;63355.56;5011467;28;20059;-77
2024/02/22 04:37:06;;;;;;;2.30;1.10;;;;;;;-141.50;100.00;63355.56;5009334;28;20061;-78
2024/02/22 04:39:32;;;;;;;1.27;0.80;;;;;;;-141.50;100.00;63355.56;5010969;28;20045;-78
2024/02/22 04:41:59;;;;;;;2.20;0.82;;;;;;;-141.50;100.00;63355.56;5010744;28;20038;-77
2024/02/22 04:44:26;;;;;;;2.80;0.80;;;;;;;-141.50;100.00;63355.56;5011375;28;20050;-79
2024/02/22 04:46:54;;;;;;;1.75;0.80;;;;;;;-141.50;100.00;63355.56;5012085;28;20044;-78
2024/02/22 04:49:21;;;;;;;1.27;0.80;;;;;;;-141.50;100.00;63355.56;5011660;28;20062;-79
2024/02/22 04:51:47;;;;;;;1.70;0.85;;;;;;;-141.50;100.00;63355.56;4995472;28;20034;-79
2024/02/22 04:54:15;;;;;;;2.20;0.90;;;;;;;-141.50;100.00;63355.56;5010960;28;20050;-79
2024/02/22 04:56:41;;;;;;;1.67;0.80;;;;;;;-141.50;100.00;63355.56;5012418;28;20045;-79
2024/02/22 04:59:08;;;;;;;1.17;0.75;;;;;;;-141.50;100.00;63355.56;4988583;28;20046;-78
2024/02/22 05:01:37;;;;;;;4.10;0.82;;;;;;;-141.50;100.00;63355.56;5007228;28;20042;-79
2024/02/22 05:04:07;;;;;;;2.03;0.80;;;;;;;-141.50;100.00;63355.56;4993405;28;20038;-79
2024/02/22 05:06:35;;;;;;;1.58;0.65;;;;;;;-141.50;100.00;63355.56;4994494;28;20085;-79
2024/02/22 05:09:02;;;;;;;3.80;0.80;;;;;;;-141.50;100.00;63355.56;4976671;28;20522;-79
2024/02/22 05:11:28;;;;;;;1.45;0.85;;;;;;;-141.50;100.00;63355.56;5010566;28;20050;-79
2024/02/22 05:13:57;;;;;;;1.75;0.73;;;;;;;-141.50;100.00;63355.56;5011460;28;20107;-79
2024/02/22 05:16:24;;;;;;;1.88;0.80;;;;;;;-141.50;100.00;63355.56;5011002;28;20057;-79
2024/02/22 05:18:52;;;;;;;3.63;0.95;;;;;;;-141.50;100.00;63355.56;5014204;28;20100;-77
2024/02/22 05:21:19;;;;;;;1.95;1.13;;;;;;;-141.50;100.00;63355.56;5013468;28;20417;-79
2024/02/22 05:23:45;;;;;;;1.70;0.80;;;;;;;-141.50;100.00;63355.56;5011061;28;20046;-77
2024/02/22 05:26:12;;;;;;;3.05;1.00;;;;;;;-141.50;100.00;63355.56;4991462;28;20104;-77
2024/02/22 05:28:39;;;;;;;1.60;0.90;;;;;;;-141.50;100.00;63355.56;5009754;28;20133;-79
2024/02/22 05:31:20;;;;;;;1.92;0.90;;;;;;;-141.50;100.00;63355.56;5011286;28;20463;-79
2024/02/22 05:33:47;;;;;;;4.15;0.90;;;;;;;-141.50;100.00;63355.56;5011374;28;20049;-77
2024/02/22 05:36:15;;;;;;;1.40;0.77;;;;;;;-141.50;100.00;63355.56;5009448;28;20062;-78
2024/02/22 05:38:42;;;;;;;2.60;0.90;;;;;;;-141.50;100.00;63355.56;4988741;28;20046;-78
2024/02/22 05:41:09;;;;;;;1.70;0.80;;;;;;;-141.50;100.00;63355.56;5009551;28;20041;-79
2024/02/22 05:43:36;;;;;;;2.45;0.90;;;;;;;-141.50;100.00;63355.56;4988341;28;20119;-78
2024/02/22 05:46:02;;;;;;;2.13;0.68;;;;;;;-141.50;100.00;63355.56;5012879;28;20042;-78
2024/02/22 05:48:29;;;;;;;2.58;0.90;;;;;;;-141.50;100.00;63355.56;5012382;28;20128;-77
2024/02/22 05:50:56;;;;;;;1.48;0.85;;;;;;;-141.50;100.00;63355.56;4991830;28;20057;-78
2024/02/22 05:53:23;;;;;;;2.72;0.82;;;;;;;-141.50;100.00;63355.56;4983933;28;20061;-78
2024/02/22 05:55:50;;;;;;;2.00;1.10;;;;;;;-141.50;100.00;63355.56;5009560;28;20330;-78
2024/02/22 05:58:17;;;;;;;3.17;0.90;;;;;;;-141.50;100.00;63355.56;4988568;28;20563;-77
2024/02/22 06:00:45;;;;;;;1.52;0.80;;;;;;;-141.50;100.00;63355.56;4973924;28;20050;-78
2024/02/22 06:03:11;;;;;;;3.35;0.90;;;;;;;-141.50;100.00;63355.56;5005636;28;20057;-76
2024/02/22 06:05:39;;;;;;;1.33;0.82;;;;;;;-141.50;100.00;63355.56;4990488;28;20123;-77
2024/02/22 06:08:06;;;;;;;2.05;0.90;;;;;;;-141.50;100.00;63355.56;5005881;28;20045;-77
2024/02/22 06:10:33;;;;;;;2.63;1.08;;;;;;;-141.50;100.00;63355.56;5009361;28;20092;-79
2024/02/22 06:13:00;;;;;;;4.60;0.85;;;;;;;-141.50;100.00;63355.56;5008775;28;20049;-78
2024/02/22 06:15:27;;;;;;;1.50;0.88;;;;;;;-141.50;100.00;63355.56;4990999;28;20125;-78
2024/02/22 06:17:54;;;;;;;1.95;0.90;;;;;;;-141.50;100.00;63355.56;5009967;28;20481;-77
2024/02/22 06:20:20;;;;;;;2.28;0.93;;;;;;;-141.50;100.00;63355.56;4999291;28;20054;-77
2024/02/22 06:22:47;;;;;;;1.20;0.70;;;;;;;-141.50;100.00;63355.56;5007144;28;20045;-77
2024/02/22 06:25:14;;;;;;;2.55;0.90;;;;;;;-141.50;100.00;63355.56;4988737;28;20078;-77
2024/02/22 06:27:44;;;;;;;1.95;0.90;;;;;;;-141.50;100.00;63355.56;5007773;28;20046;-77
2024/02/22 06:30:14;;;;;;;1.92;1.02;;;;;;;-141.50;100.00;63355.56;4988569;28;20056;-77
2024/02/22 06:32:41;;;;;;;1.35;0.90;;;;;;;-141.50;100.00;63355.56;4989343;28;20056;-78
2024/02/22 06:35:09;;;;;;;2.42;1.10;;;;;;;-141.50;100.00;63355.56;4988853;28;20041;-78
2024/02/22 06:37:35;;;;;;;1.55;0.80;;;;;;;-141.50;100.00;63355.56;4989658;28;20459;-78
2024/02/22 06:40:07;;;;;;;3.00;1.00;;;;;;;-141.50;100.00;63355.56;5006531;28;20046;-78
2024/02/22 06:42:34;;;;;;;2.00;0.80;;;;;;;-141.50;100.00;63355.56;5006114;28;20238;-77
2024/02/22 06:45:01;;;;;;;1.10;0.70;;;;;;;-141.50;100.00;63355.56;5004132;28;20084;-77
2024/02/22 06:47:28;;;;;;;3.10;1.10;;;;;;;-141.50;100.00;63355.56;4988459;28;20042;-77
2024/02/22 06:49:55;;;;;;;1.73;1.08;;;;;;;-141.50;100.00;63355.56;5005774;28;20128;-77
2024/02/22 06:52:22;;;;;;;2.63;0.98;;;;;;;-141.50;100.00;63355.56;4987611;28;20062;-78
2024/02/22 06:54:50;;;;;;;1.52;1.00;;;;;;;-141.50;100.00;63355.56;5006336;28;20077;-77
2024/02/22 06:57:18;;;;;;;4.65;1.10;;;;;;;-141.50;100.00;63355.56;5004802;28;20054;-77
2024/02/22 06:59:44;;;;;;;2.97;0.80;;;;;;;-141.50;100.00;63355.56;4999767;28;20072;-78
2024/02/22 07:02:15;;;;;;;3.08;1.10;;;;;;;-141.50;100.00;63355.56;5003776;28;20053;-77
2024/02/22 07:04:43;;;;;;;4.45;1.08;;;;;;;-141.50;100.00;63355.56;5009717;28;20046;-78
2024/02/22 07:07:10;;;;;;;3.65;0.93;;;;;;;-141.50;100.00;63355.56;5008292;28;20042;-78
2024/02/22 07:09:38;;;;;;;2.38;1.00;;;;;;;-141.50;100.00;63355.56;5008847;28;20041;-77
2024/02/22 07:12:05;;;;;;;3.13;0.90;;;;;;;-141.50;100.00;63355.56;5007271;28;20046;-78
2024/02/22 07:14:32;;;;;;;1.63;0.82;;;;;;;-141.50;100.00;63355.56;4990403;28;20049;-78
2024/02/22 07:16:59;;;;;;;1.55;0.70;;;;;;;-141.50;100.00;63355.56;4991649;28;20056;-78
2024/02/22 07:19:26;;;;;;;3.03;0.80;;;;;;;-141.50;100.00;63355.56;4985280;28;20042;-78
2024/02/22 07:21:53;;;;;;;3.35;0.77;;;;;;;-141.50;100.00;63355.56;4990269;28;20046;-78
2024/02/22 07:24:20;;;;;;;1.08;0.70;;;;;;;-141.50;100.00;63355.56;4988839;28;20054;-78
2024/02/22 07:26:47;;;;;;;1.17;0.70;;;;;;;-141.50;100.00;63355.56;5007814;28;20128;-79
2024/02/22 07:29:13;;;;;;;2.17;1.20;;;;;;;-141.50;100.00;63355.56;4988650;28;20457;-78
2024/02/22 07:31:43;;;;;;;1.10;0.60;;;;;;;-141.50;100.00;63355.56;4986225;28;20073;-78
2024/02/22 07:34:10;;;;;;;1.58;0.77;;;;;;;-141.50;100.00;63355.56;4989532;28;20088;-78
2024/02/22 07:36:37;;;;;;;1.10;0.60;;;;;;;-141.50;100.00;63355.56;5003742;28;20147;-78
2024/02/22 07:39:04;;;;;;;2.35;0.70;;;;;;;-141.50;100.00;63355.56;5007273;28;20046;-78
2024/02/22 07:41:30;;;;;;;1.13;0.60;;;;;;;-141.50;100.00;63355.56;5009205;28;20080;-78
2024/02/22 07:43:57;;;;;;;2.70;0.68;;;;;;;-141.50;100.00;63355.56;4991159;28;20081;-79
2024/02/22 07:46:24;;;;;;;1.42;0.70;;;;;;;-141.50;100.00;63355.56;4989499;28;20111;-80
2024/02/22 07:48:51;;;;;;;2.47;0.80;;;;;;;-141.50;100.00;63355.56;5008924;28;20042;-78
2024/02/22 07:51:17;;;;;;;0.98;0.60;;;;;;;-141.50;100.00;63355.56;4988970;28;20048;-79
2024/02/22 07:53:45;;;;;;;1.33;0.70;;;;;;;-141.50;100.00;63355.56;5007153;28;20045;-79
2024/02/22 07:56:11;;;;;;;1.58;0.60;;;;;;;-141.50;100.00;63355.56;5006415;28;20144;-80
2024/02/22 07:58:49;;;;;;;1.90;0.70;;;;;;;-141.50;100.00;63355.56;5003101;28;20046;-79
2024/02/22 08:01:16;;;;;;;3.42;0.60;;;;;;;-141.50;100.00;63355.56;5005461;28;20060;-79
2024/02/22 08:03:44;;;;;;;0.90;0.50;;;;;;;-141.50;100.00;63355.56;5006639;28;20516;-79
2024/02/22 08:06:12;;;;;;;1.55;0.70;;;;;;;-141.50;100.00;63355.56;5006105;28;20288;-79
2024/02/22 08:08:39;;;;;;;1.10;0.55;;;;;;;-141.50;100.00;63355.56;5003643;28;20412;-80
2024/02/22 08:11:06;;;;;;;0.88;0.50;;;;;;;-141.50;100.00;63355.56;5011421;28;20053;-79
2024/02/22 08:13:34;;;;;;;1.30;0.68;;;;;;;-141.50;100.00;63355.56;4993365;28;20112;-79
2024/02/22 08:16:05;;;;;;;1.00;0.60;;;;;;;-141.50;100.00;63355.56;5008206;28;20049;-78
2024/02/22 08:18:33;;;;;;;0.80;0.50;;;;;;;-141.50;100.00;63355.56;4989263;28;20422;-79
2024/02/22 08:21:01;;;;;;;1.10;0.60;;;;;;;-141.50;100.00;63355.56;4987011;28;20095;-79
2024/02/22 08:23:28;;;;;;;1.67;0.70;;;;;;;-141.50;100.00;63355.56;5004469;28;20042;-79
2024/02/22 08:25:56;;;;;;;1.00;0.50;;;;;;;-141.50;100.00;63355.56;4989758;28;20132;-79
2024/02/22 08:28:23;;;;;;;2.95;0.50;;;;;;;-141.50;100.00;63355.56;4988256;28;20046;-79
2024/02/22 08:30:51;;;;;;;1.40;0.60;;;;;;;-141.50;100.00;63355.56;5007710;28;20104;-79
2024/02/22 08:33:19;;;;;;;1.25;0.55;;;;;;;-141.50;100.00;63355.56;4988659;28;20054;-79
2024/02/22 08:35:46;;;;;;;0.80;0.40;;;;;;;-141.50;100.00;63355.56;5007461;28;20081;-79
2024/02/22 08:38:13;;;;;;;1.45;0.40;;;;;;;-141.50;100.00;63355.56;4981471;28;20421;-78
2024/02/22 08:40:42;;;;;;;1.60;0.50;;;;;;;-141.50;100.00;63355.56;4982449;28;20093;-79
2024/02/22 08:43:10;;;;;;;0.85;0.40;;;;;;;-141.50;100.00;63355.56;5006806;28;20041;-79
2024/02/22 08:45:37;;;;;;;0.70;0.40;;;;;;;-141.50;100.00;63355.56;5007757;28;20045;-79
2024/02/22 08:48:04;;;;;;;1.17;0.38;;;;;;;-141.50;100.00;63355.56;4990534;28;20041;-79
2024/02/22 08:50:32;;;;;;;0.50;0.40;;;;;;;-141.50;100.00;63355.56;5006815;28;20050;-79
2024/02/22 08:52:58;;;;;;;1.55;0.60;;;;;;;-141.50;100.00;63355.56;4989861;28;20050;-79
2024/02/22 08:55:25;;;;;;;0.45;0.30;;;;;;;-141.50;100.00;63355.56;4989133;28;20141;-79
2024/02/22 08:57:52;;;;;;;0.40;0.30;;;;;;;-141.50;100.00;63355.56;5008040;28;20050;-79
2024/02/22 09:00:22;;;;;;;1.83;0.52;;;;;;;-141.50;100.00;63355.56;5006081;28;20058;-78
2024/02/22 09:02:53;;;;;;;1.55;0.30;;;;;;;-141.50;100.00;63355.56;4978149;28;20516;-80
2024/02/22 09:05:20;;;;;;;0.98;0.47;;;;;;;-141.50;100.00;63355.56;4986325;28;20065;-80
2024/02/22 09:07:49;;;;;;;0.57;0.30;;;;;;;-141.50;100.00;63355.56;5007760;28;20058;-80
2024/02/22 09:10:17;;;;;;;0.70;0.38;;;;;;;-141.50;100.00;63355.56;5003300;28;20066;-79
2024/02/22 09:12:44;;;;;;;1.08;0.50;;;;;;;-141.50;100.00;63355.56;4989559;28;20296;-79
2024/02/22 09:15:11;;;;;;;0.75;0.40;;;;;;;-141.50;100.00;63355.56;4995451;28;20061;-79
2024/02/22 09:17:38;;;;;;;1.08;0.60;;;;;;;-141.50;100.00;63355.56;5014057;28;20049;-80
2024/02/22 09:20:06;;;;;;;0.60;0.40;;;;;;;-141.50;100.00;63355.56;5010465;28;20046;-80
2024/02/22 09:22:33;;;;;;;1.30;0.50;;;;;;;-141.50;100.00;63355.56;5009941;28;20073;-79
2024/02/22 09:25:06;;;;;;;0.75;0.40;;;;;;;-141.50;100.00;63355.56;5011124;28;20057;-80
2024/02/22 09:27:33;;;;;;;1.02;0.30;;;;;;;-141.50;100.00;63355.56;5010879;28;20754;-80
2024/02/22 09:30:02;;;;;;;0.52;0.35;;;;;;;-141.50;100.00;63355.56;4994302;28;20054;-80
2024/02/22 09:32:30;;;;;;;0.77;0.40;;;;;;;-141.50;100.00;63355.56;4991754;28;20064;-79
2024/02/22 09:34:57;;;;;;;1.90;0.40;;;;;;;-141.50;100.00;63355.56;4993894;28;20137;-80
2024/02/22 09:37:26;;;;;;;1.33;0.38;;;;;;;-141.50;100.00;63355.56;5010049;28;20081;-80
2024/02/22 09:39:53;;;;;;;1.42;0.40;;;;;;;-141.50;100.00;63355.56;5011633;28;20053;-80
2024/02/22 09:42:26;;;;;;;0.68;0.40;;;;;;;-141.50;100.00;63355.56;5010340;28;20488;-79
2024/02/22 09:44:55;;;;;;;0.70;0.40;;;;;;;-141.50;100.00;63355.56;4994172;28;20058;-78
2024/02/22 09:47:22;;;;;;;2.30;0.52;;;;;;;-141.50;100.00;63355.56;5010152;28;20438;-79
2024/02/22 09:49:49;;;;;;;1.33;0.50;;;;;;;-141.50;100.00;63355.56;4993204;28;20076;-80
2024/02/22 09:52:19;;;;;;;0.93;0.50;;;;;;;-141.50;100.00;63355.56;5009536;28;20224;-79
2024/02/22 09:54:46;;;;;;;0.68;0.30;;;;;;;-141.50;100.00;63355.56;4989564;28;20618;-79
2024/02/22 09:57:13;;;;;;;0.30;0.30;;;;;;;-141.50;100.00;63355.56;4998706;28;20056;-80
2024/02/22 09:59:50;;;;;;;0.80;0.40;;;;;;;-141.50;100.00;63355.56;4987601;28;20077;-79
2024/02/22 10:02:18;;;;;;;1.63;0.43;;;;;;;-141.50;100.00;63355.56;4991643;28;20111;-77
2024/02/22 10:04:56;;;;;;;1.02;0.50;;;;;;;-141.50;100.00;63355.56;5010793;28;20046;-79
2024/02/22 10:07:26;;;;;;;0.77;0.40;;;;;;;-141.50;100.00;63355.56;4992380;28;20058;-79
2024/02/22 10:09:54;;;;;;;0.63;0.40;;;;;;;-141.50;100.00;63355.56;4993658;28;20448;-80
2024/02/22 10:12:32;;;;;;;0.70;0.30;;;;;;;-141.50;100.00;63355.56;5009049;28;20528;-79
2024/02/22 10:15:08;;;;;;;1.73;0.43;;;;;;;-141.50;100.00;63355.56;5013169;28;20045;-79
2024/02/22 10:17:37;;;;;;;2.15;0.40;;;;;;;-141.50;100.00;63355.56;5009201;28;20283;-79
2024/02/22 10:20:09;;;;;;;0.50;0.40;;;;;;;-141.50;100.00;63355.56;4992910;28;20347;-79
2024/02/22 10:22:37;;;;;;;0.28;0.28;;;;;;;-141.50;100.00;63355.56;4991967;28;20144;-79
2024/02/22 10:25:14;;;;;;;0.80;0.32;;;;;;;-141.50;100.00;63355.56;5010339;28;20050;-79
2024/02/22 10:27:48;;;;;;;0.68;0.40;;;;;;;-141.50;100.00;63355.56;4992194;28;20132;-79
2024/02/22 10:30:16;;;;;;;0.90;0.40;;;;;;;-141.50;100.00;63355.56;4986315;28;20149;-78
2024/02/22 10:32:44;;;;;;;0.63;0.40;;;;;;;-141.50;100.00;63355.56;4991310;28;20520;-78
2024/02/22 10:35:12;;;;;;;0.50;0.40;;;;;;;-141.50;100.00;63355.56;5010095;28;20446;-78
2024/02/22 10:37:39;;;;;;;0.77;0.40;;;;;;;-141.50;100.00;63355.56;5009694;28;20054;-78
2024/02/22 10:40:09;;;;;;;0.63;0.32;;;;;;;-141.50;100.00;63355.56;4991525;28;20062;-80
2024/02/22 10:42:40;;;;;;;0.25;0.20;;;;;;;-141.50;100.00;63355.56;4991645;28;20046;-79
2024/02/22 10:45:08;;;;;;;1.10;0.30;;;;;;;-141.50;100.00;63355.56;4992517;28;20141;-79
2024/02/22 10:47:39;;;;;;;0.70;0.40;;;;;;;-141.50;100.00;63355.56;4992812;28;20077;-79
2024/02/22 10:50:06;;;;;;;0.40;0.25;;;;;;;-141.50;100.00;63355.56;5009682;28;20136;-80
2024/02/22 10:52:39;;;;;;;0.80;0.32;;;;;;;-141.50;100.00;63355.56;4991087;28;20076;-78
2024/02/22 10:55:15;;;;;;;0.43;0.20;;;;;;;-141.50;100.00;63355.56;5009090;28;20070;-79
2024/02/22 10:57:49;;;;;;;0.50;0.30;;;;;;;-141.50;100.00;63355.56;5006086;28;20451;-80
2024/02/22 11:00:16;;;;;;;0.75;0.30;;;;;;;-141.50;100.00;63355.56;5005536;28;20050;-79
2024/02/22 11:02:45;;;;;;;0.38;0.30;;;;;;;-141.50;100.00;63355.56;4992225;28;20061;-79
2024/02/22 11:05:13;;;;;;;0.43;0.20;;;;;;;-141.50;100.00;63355.56;4988511;28;20054;-80
2024/02/22 11:07:52;;;;;;;0.45;0.30;;;;;;;-141.50;100.00;63355.56;4988756;28;20065;-79
2024/02/22 11:10:19;;;;;;;0.93;0.40;;;;;;;-141.50;100.00;63355.56;5003958;28;20073;-81
2024/02/22 11:12:47;;;;;;;0.90;0.40;;;;;;;-141.50;100.00;63355.56;5010393;28;20061;-80